KZR995 UAAA-UACC
Flight info
| Callsign | KZR995 |
|---|---|
| Flight time | 1h 20m |
| Altitude | 38000 |
| Route | ETEDA1B ETEDA W333 BANOS BANOS1G |
| Aircraft | B763/H-SDE2E3FGHIZM1RWXY/LB1 |
Departure
| Time | 2026-04-24 10:07 |
|---|---|
| Airport | Almaty International Airport (UAAA) |
Arrival
| Time | 2026-04-24 11:27 |
|---|---|
| Airport | Nursultan Nazarbayev International Airport (UACC) |
| Time | Latitude | Longitude | Altitude | Speed | Heading |
|---|---|---|---|---|---|
| 2026-04-24 09:44 | 43.34683 | 77.01317 | 2234 ft | 0 kts | 245° |
| 2026-04-24 09:57 | 43.34686 | 77.01327 | 2234 ft | 2 kts | 245° |
| 2026-04-24 09:57 | 43.34692 | 77.01346 | 2234 ft | 2 kts | 245° |
| 2026-04-24 09:58 | 43.34699 | 77.01365 | 2234 ft | 2 kts | 245° |
| 2026-04-24 09:58 | 43.34705 | 77.01383 | 2233 ft | 2 kts | 245° |
| 2026-04-24 09:58 | 43.34712 | 77.01402 | 2233 ft | 2 kts | 245° |
| 2026-04-24 09:58 | 43.34718 | 77.01421 | 2233 ft | 2 kts | 245° |
| 2026-04-24 09:59 | 43.34724 | 77.01440 | 2233 ft | 2 kts | 240° |
| 2026-04-24 09:59 | 43.34733 | 77.01455 | 2233 ft | 2 kts | 219° |
| 2026-04-24 09:59 | 43.34745 | 77.01466 | 2233 ft | 2 kts | 202° |
| 2026-04-24 09:59 | 43.34755 | 77.01470 | 2233 ft | 1 kts | 199° |
| 2026-04-24 10:00 | 43.34756 | 77.01471 | 2233 ft | 0 kts | 199° |
| 2026-04-24 10:01 | 43.34743 | 77.01465 | 2233 ft | 6 kts | 199° |
| 2026-04-24 10:01 | 43.34657 | 77.01452 | 2235 ft | 18 kts | 171° |
| 2026-04-24 10:01 | 43.34542 | 77.01494 | 2239 ft | 14 kts | 156° |
| 2026-04-24 10:01 | 43.34469 | 77.01538 | 2241 ft | 9 kts | 156° |
| 2026-04-24 10:02 | 43.34425 | 77.01565 | 2241 ft | 5 kts | 155° |
| 2026-04-24 10:02 | 43.34374 | 77.01597 | 2242 ft | 10 kts | 154° |
| 2026-04-24 10:02 | 43.34295 | 77.01647 | 2242 ft | 13 kts | 155° |
| 2026-04-24 10:02 | 43.34267 | 77.01666 | 2243 ft | 0 kts | 154° |
| 2026-04-24 10:03 | 43.34223 | 77.01695 | 2244 ft | 16 kts | 155° |
| 2026-04-24 10:04 | 43.34172 | 77.01846 | 2245 ft | 20 kts | 63° |
| 2026-04-24 10:04 | 43.34202 | 77.01905 | 2245 ft | 0 kts | 56° |
| 2026-04-24 10:05 | 43.34204 | 77.01910 | 2245 ft | 4 kts | 56° |
| 2026-04-24 10:06 | 43.34325 | 77.02154 | 2244 ft | 61 kts | 56° |
| 2026-04-24 10:06 | 43.35269 | 77.04053 | 2259 ft | 175 kts | 54° |
| 2026-04-24 10:06 | 43.36008 | 77.05503 | 2746 ft | 194 kts | 54° |
| 2026-04-24 10:07 | 43.36811 | 77.07002 | 3527 ft | 199 kts | 51° |
| 2026-04-24 10:07 | 43.37674 | 77.08583 | 3729 ft | 221 kts | 53° |
| 2026-04-24 10:07 | 43.38630 | 77.10439 | 3819 ft | 251 kts | 55° |
| 2026-04-24 10:07 | 43.39631 | 77.12436 | 4435 ft | 258 kts | 55° |
| 2026-04-24 10:08 | 43.40636 | 77.14462 | 5164 ft | 261 kts | 54° |
| 2026-04-24 10:08 | 43.41927 | 77.16256 | 5646 ft | 273 kts | 28° |
| 2026-04-24 10:08 | 43.43746 | 77.16991 | 6365 ft | 275 kts | 360° |
| 2026-04-24 10:08 | 43.45580 | 77.16454 | 7136 ft | 277 kts | 334° |
| 2026-04-24 10:09 | 43.47263 | 77.15185 | 7883 ft | 280 kts | 332° |
| 2026-04-24 10:09 | 43.48986 | 77.13930 | 8634 ft | 282 kts | 332° |
| 2026-04-24 10:09 | 43.50720 | 77.12714 | 9419 ft | 284 kts | 333° |
| 2026-04-24 10:09 | 43.52501 | 77.11475 | 10205 ft | 286 kts | 333° |
| 2026-04-24 10:10 | 43.54293 | 77.10221 | 10624 ft | 302 kts | 332° |
| 2026-04-24 10:10 | 43.56249 | 77.08850 | 10650 ft | 332 kts | 332° |
| 2026-04-24 10:10 | 43.58387 | 77.07351 | 10989 ft | 352 kts | 332° |
| 2026-04-24 10:10 | 43.60554 | 77.05830 | 11948 ft | 352 kts | 332° |
| 2026-04-24 10:11 | 43.62735 | 77.04299 | 12711 ft | 358 kts | 332° |
| 2026-04-24 10:11 | 43.64967 | 77.02730 | 13512 ft | 361 kts | 331° |
| 2026-04-24 10:11 | 43.67197 | 77.01160 | 14249 ft | 365 kts | 330° |
| 2026-04-24 10:11 | 43.69465 | 76.99563 | 14916 ft | 370 kts | 330° |
| 2026-04-24 10:12 | 43.71756 | 76.97947 | 15652 ft | 374 kts | 329° |
| 2026-04-24 10:12 | 43.74077 | 76.96310 | 16345 ft | 378 kts | 329° |
| 2026-04-24 10:12 | 43.76440 | 76.94640 | 17069 ft | 382 kts | 328° |
| 2026-04-24 10:12 | 43.78804 | 76.92968 | 17722 ft | 387 kts | 328° |
| 2026-04-24 10:13 | 43.81190 | 76.91279 | 18367 ft | 391 kts | 328° |
| 2026-04-24 10:13 | 43.83626 | 76.89552 | 18981 ft | 396 kts | 328° |
| 2026-04-24 10:13 | 43.86078 | 76.87814 | 19632 ft | 400 kts | 328° |
| 2026-04-24 10:13 | 43.88584 | 76.86034 | 20234 ft | 405 kts | 327° |
| 2026-04-24 10:14 | 43.91092 | 76.84255 | 20871 ft | 409 kts | 327° |
| 2026-04-24 10:14 | 43.93616 | 76.82458 | 21406 ft | 413 kts | 327° |
| 2026-04-24 10:14 | 43.96180 | 76.80634 | 21970 ft | 417 kts | 327° |
| 2026-04-24 10:14 | 43.98745 | 76.78808 | 22540 ft | 420 kts | 327° |
| 2026-04-24 10:15 | 44.01376 | 76.76931 | 23036 ft | 425 kts | 327° |
| 2026-04-24 10:15 | 44.03986 | 76.75068 | 23556 ft | 428 kts | 326° |
| 2026-04-24 10:15 | 44.06643 | 76.73170 | 24078 ft | 431 kts | 326° |
| 2026-04-24 10:15 | 44.09305 | 76.71265 | 24558 ft | 435 kts | 326° |
| 2026-04-24 10:16 | 44.12019 | 76.69321 | 25047 ft | 437 kts | 326° |
| 2026-04-24 10:16 | 44.14708 | 76.67394 | 25440 ft | 441 kts | 327° |
| 2026-04-24 10:16 | 44.17451 | 76.65427 | 25930 ft | 443 kts | 327° |
| 2026-04-24 10:16 | 44.20206 | 76.63448 | 26365 ft | 445 kts | 327° |
| 2026-04-24 10:17 | 44.22931 | 76.61488 | 26765 ft | 447 kts | 327° |
| 2026-04-24 10:17 | 44.25705 | 76.59493 | 27197 ft | 449 kts | 327° |
| 2026-04-24 10:17 | 44.28490 | 76.57486 | 27560 ft | 452 kts | 327° |
| 2026-04-24 10:17 | 44.31297 | 76.55461 | 27917 ft | 455 kts | 327° |
| 2026-04-24 10:18 | 44.34084 | 76.53461 | 28280 ft | 457 kts | 328° |
| 2026-04-24 10:18 | 44.37055 | 76.51691 | 28604 ft | 464 kts | 332° |
| 2026-04-24 10:18 | 44.40006 | 76.49985 | 28948 ft | 465 kts | 332° |
| 2026-04-24 10:18 | 44.42992 | 76.48254 | 29238 ft | 468 kts | 332° |
| 2026-04-24 10:19 | 44.46010 | 76.46493 | 29618 ft | 468 kts | 332° |
| 2026-04-24 10:19 | 44.48985 | 76.44756 | 29903 ft | 471 kts | 332° |
| 2026-04-24 10:19 | 44.52049 | 76.42962 | 30161 ft | 474 kts | 332° |
| 2026-04-24 10:19 | 44.55074 | 76.41190 | 30469 ft | 475 kts | 332° |
| 2026-04-24 10:20 | 44.58119 | 76.39401 | 30668 ft | 478 kts | 332° |
| 2026-04-24 10:20 | 44.61167 | 76.37610 | 30951 ft | 478 kts | 332° |
| 2026-04-24 10:20 | 44.64256 | 76.35792 | 31168 ft | 480 kts | 332° |
| 2026-04-24 10:20 | 44.67331 | 76.33981 | 31450 ft | 480 kts | 331° |
| 2026-04-24 10:21 | 44.70370 | 76.32188 | 31767 ft | 479 kts | 331° |
| 2026-04-24 10:21 | 44.73449 | 76.30370 | 32056 ft | 479 kts | 331° |
| 2026-04-24 10:21 | 44.76534 | 76.28547 | 32373 ft | 478 kts | 331° |
| 2026-04-24 10:21 | 44.79584 | 76.26742 | 32674 ft | 477 kts | 331° |
| 2026-04-24 10:22 | 44.82624 | 76.24939 | 32989 ft | 475 kts | 331° |
| 2026-04-24 10:22 | 44.85639 | 76.23151 | 33237 ft | 475 kts | 331° |
| 2026-04-24 10:22 | 44.88712 | 76.21324 | 33439 ft | 476 kts | 331° |
| 2026-04-24 10:22 | 44.91742 | 76.19524 | 33769 ft | 474 kts | 331° |
| 2026-04-24 10:23 | 44.94760 | 76.17727 | 34068 ft | 472 kts | 331° |
| 2026-04-24 10:23 | 44.97770 | 76.15932 | 34249 ft | 473 kts | 332° |
| 2026-04-24 10:23 | 45.00777 | 76.14138 | 34480 ft | 472 kts | 332° |
| 2026-04-24 10:23 | 45.03812 | 76.12324 | 34694 ft | 471 kts | 331° |
| 2026-04-24 10:24 | 45.06818 | 76.10527 | 34860 ft | 472 kts | 331° |
| 2026-04-24 10:24 | 45.09816 | 76.08732 | 35075 ft | 471 kts | 331° |
| 2026-04-24 10:24 | 45.12853 | 76.06911 | 35240 ft | 471 kts | 331° |
| 2026-04-24 10:24 | 45.15855 | 76.05109 | 35414 ft | 471 kts | 331° |
| 2026-04-24 10:25 | 45.18843 | 76.03314 | 35572 ft | 471 kts | 331° |
| 2026-04-24 10:25 | 45.21865 | 76.01495 | 35726 ft | 471 kts | 331° |
| 2026-04-24 10:25 | 45.24855 | 75.99696 | 35908 ft | 470 kts | 331° |
| 2026-04-24 10:25 | 45.27851 | 75.97889 | 36056 ft | 471 kts | 331° |
| 2026-04-24 10:26 | 45.30862 | 75.96071 | 36230 ft | 471 kts | 331° |
| 2026-04-24 10:26 | 45.33884 | 75.94244 | 36418 ft | 470 kts | 331° |
| 2026-04-24 10:26 | 45.36868 | 75.92439 | 36533 ft | 470 kts | 331° |
| 2026-04-24 10:26 | 45.39888 | 75.90610 | 36680 ft | 470 kts | 331° |
| 2026-04-24 10:27 | 45.42883 | 75.88794 | 36804 ft | 470 kts | 331° |
| 2026-04-24 10:27 | 45.45871 | 75.86980 | 36924 ft | 470 kts | 331° |
| 2026-04-24 10:27 | 45.48897 | 75.85139 | 37020 ft | 471 kts | 331° |
| 2026-04-24 10:27 | 45.51876 | 75.83327 | 37140 ft | 470 kts | 331° |
| 2026-04-24 10:28 | 45.54873 | 75.81501 | 37222 ft | 471 kts | 331° |
| 2026-04-24 10:28 | 45.60877 | 75.77837 | 37420 ft | 471 kts | 331° |
| 2026-04-24 10:29 | 45.66903 | 75.74150 | 37589 ft | 471 kts | 331° |
| 2026-04-24 10:29 | 45.72899 | 75.70474 | 37784 ft | 471 kts | 332° |
| 2026-04-24 10:30 | 45.78927 | 75.66773 | 37956 ft | 470 kts | 331° |
| 2026-04-24 10:30 | 45.84899 | 75.63097 | 38078 ft | 468 kts | 331° |
| 2026-04-24 10:31 | 45.90834 | 75.59433 | 38082 ft | 467 kts | 331° |
| 2026-04-24 10:31 | 45.96812 | 75.55736 | 38082 ft | 468 kts | 331° |
| 2026-04-24 10:32 | 46.02742 | 75.52059 | 38086 ft | 467 kts | 331° |
| 2026-04-24 10:32 | 46.08696 | 75.48359 | 38086 ft | 467 kts | 332° |
| 2026-04-24 10:33 | 46.14666 | 75.44640 | 38079 ft | 467 kts | 332° |
| 2026-04-24 10:33 | 46.20599 | 75.40935 | 38082 ft | 468 kts | 331° |
| 2026-04-24 10:34 | 46.26568 | 75.37223 | 38084 ft | 467 kts | 332° |
| 2026-04-24 10:34 | 46.32517 | 75.33523 | 38094 ft | 466 kts | 331° |
| 2026-04-24 10:35 | 46.38468 | 75.29814 | 38092 ft | 465 kts | 331° |
| 2026-04-24 10:35 | 46.44385 | 75.26116 | 38094 ft | 466 kts | 331° |
| 2026-04-24 10:36 | 46.50314 | 75.22402 | 38094 ft | 466 kts | 331° |
| 2026-04-24 10:36 | 46.56242 | 75.18680 | 38093 ft | 466 kts | 331° |
| 2026-04-24 10:37 | 46.62194 | 75.14934 | 38096 ft | 467 kts | 331° |
| 2026-04-24 10:37 | 46.68122 | 75.11194 | 38095 ft | 467 kts | 331° |
| 2026-04-24 10:38 | 46.74063 | 75.07437 | 38096 ft | 466 kts | 331° |
| 2026-04-24 10:38 | 46.79979 | 75.03687 | 38096 ft | 465 kts | 331° |
| 2026-04-24 10:39 | 46.85895 | 74.99927 | 38098 ft | 465 kts | 331° |
| 2026-04-24 10:39 | 46.91910 | 74.96392 | 38107 ft | 468 kts | 335° |
| 2026-04-24 10:40 | 46.97964 | 74.93074 | 38108 ft | 469 kts | 334° |
| 2026-04-24 10:40 | 47.04079 | 74.89704 | 38104 ft | 470 kts | 334° |
| 2026-04-24 10:41 | 47.10160 | 74.86341 | 38105 ft | 470 kts | 334° |
| 2026-04-24 10:41 | 47.16254 | 74.82963 | 38100 ft | 468 kts | 334° |
| 2026-04-24 10:42 | 47.22359 | 74.79570 | 38105 ft | 468 kts | 334° |
| 2026-04-24 10:42 | 47.28409 | 74.76198 | 38110 ft | 468 kts | 334° |
| 2026-04-24 10:43 | 47.34501 | 74.72796 | 38111 ft | 468 kts | 334° |
| 2026-04-24 10:43 | 47.40570 | 74.69397 | 38114 ft | 468 kts | 334° |
| 2026-04-24 10:44 | 47.46634 | 74.65994 | 38113 ft | 469 kts | 335° |
| 2026-04-24 10:44 | 47.52694 | 74.62583 | 38116 ft | 469 kts | 334° |
| 2026-04-24 10:45 | 47.58798 | 74.59163 | 38115 ft | 469 kts | 335° |
| 2026-04-24 10:45 | 47.64903 | 74.55739 | 38116 ft | 470 kts | 335° |
| 2026-04-24 10:46 | 47.70974 | 74.52326 | 38114 ft | 469 kts | 335° |
| 2026-04-24 10:46 | 47.77056 | 74.48898 | 38110 ft | 468 kts | 335° |
| 2026-04-24 10:47 | 47.83149 | 74.45455 | 38117 ft | 469 kts | 335° |
| 2026-04-24 10:47 | 47.89224 | 74.42014 | 38112 ft | 469 kts | 335° |
| 2026-04-24 10:48 | 47.95301 | 74.38563 | 38114 ft | 469 kts | 335° |
| 2026-04-24 10:48 | 48.01368 | 74.35108 | 38120 ft | 469 kts | 335° |
| 2026-04-24 10:49 | 48.07453 | 74.31635 | 38125 ft | 469 kts | 334° |
| 2026-04-24 10:49 | 48.13535 | 74.28157 | 38122 ft | 468 kts | 334° |
| 2026-04-24 10:50 | 48.19596 | 74.24731 | 38127 ft | 469 kts | 334° |
| 2026-04-24 10:50 | 48.25680 | 74.21281 | 38132 ft | 469 kts | 334° |
| 2026-04-24 10:51 | 48.31774 | 74.17818 | 38128 ft | 468 kts | 334° |
| 2026-04-24 10:51 | 48.37838 | 74.14364 | 38125 ft | 469 kts | 335° |
| 2026-04-24 10:52 | 48.43937 | 74.10880 | 38132 ft | 470 kts | 335° |
| 2026-04-24 10:52 | 48.50006 | 74.07404 | 38125 ft | 469 kts | 335° |
| 2026-04-24 10:53 | 48.56099 | 74.03906 | 38128 ft | 469 kts | 335° |
| 2026-04-24 10:53 | 48.62172 | 74.00411 | 38127 ft | 468 kts | 335° |
| 2026-04-24 10:54 | 48.68216 | 73.96923 | 38129 ft | 468 kts | 335° |
| 2026-04-24 10:54 | 48.74286 | 73.93411 | 38130 ft | 469 kts | 334° |
| 2026-04-24 10:55 | 48.80347 | 73.89894 | 38128 ft | 470 kts | 334° |
| 2026-04-24 10:55 | 48.86443 | 73.86350 | 38131 ft | 469 kts | 334° |
| 2026-04-24 10:56 | 48.92491 | 73.82822 | 38136 ft | 469 kts | 335° |
| 2026-04-24 10:56 | 48.98586 | 73.79258 | 38138 ft | 470 kts | 334° |
| 2026-04-24 10:57 | 49.04646 | 73.75691 | 38134 ft | 469 kts | 335° |
| 2026-04-24 10:57 | 49.10736 | 73.72096 | 38133 ft | 469 kts | 335° |
| 2026-04-24 10:58 | 49.16795 | 73.68511 | 38121 ft | 468 kts | 334° |
| 2026-04-24 10:58 | 49.22832 | 73.64928 | 38119 ft | 469 kts | 334° |
| 2026-04-24 10:59 | 49.28930 | 73.61301 | 38116 ft | 470 kts | 334° |
| 2026-04-24 10:59 | 49.34930 | 73.57725 | 38092 ft | 455 kts | 334° |
| 2026-04-24 10:59 | 49.37810 | 73.56007 | 38066 ft | 443 kts | 334° |
| 2026-04-24 11:00 | 49.40671 | 73.54293 | 37813 ft | 438 kts | 334° |
| 2026-04-24 11:00 | 49.43487 | 73.52602 | 37304 ft | 439 kts | 335° |
| 2026-04-24 11:00 | 49.46310 | 73.50906 | 36796 ft | 439 kts | 335° |
| 2026-04-24 11:00 | 49.49164 | 73.49191 | 36324 ft | 439 kts | 335° |
| 2026-04-24 11:01 | 49.51997 | 73.47487 | 35962 ft | 438 kts | 335° |
| 2026-04-24 11:01 | 49.54822 | 73.45786 | 35624 ft | 438 kts | 336° |
| 2026-04-24 11:01 | 49.57640 | 73.44087 | 35185 ft | 438 kts | 336° |
| 2026-04-24 11:01 | 49.60451 | 73.42389 | 34715 ft | 437 kts | 336° |
| 2026-04-24 11:02 | 49.63264 | 73.40690 | 34042 ft | 437 kts | 336° |
| 2026-04-24 11:02 | 49.66066 | 73.38955 | 33318 ft | 436 kts | 333° |
| 2026-04-24 11:02 | 49.68726 | 73.36673 | 32510 ft | 434 kts | 323° |
| 2026-04-24 11:02 | 49.71057 | 73.33794 | 31695 ft | 433 kts | 315° |
| 2026-04-24 11:03 | 49.73277 | 73.30705 | 30899 ft | 434 kts | 315° |
| 2026-04-24 11:03 | 49.75494 | 73.27586 | 30054 ft | 435 kts | 315° |
| 2026-04-24 11:03 | 49.77692 | 73.24458 | 29493 ft | 426 kts | 315° |
| 2026-04-24 11:03 | 49.79848 | 73.21371 | 29035 ft | 426 kts | 315° |
| 2026-04-24 11:04 | 49.82017 | 73.18248 | 28550 ft | 432 kts | 315° |
| 2026-04-24 11:04 | 49.84208 | 73.15088 | 28062 ft | 432 kts | 315° |
| 2026-04-24 11:04 | 49.86405 | 73.11911 | 27577 ft | 428 kts | 315° |
| 2026-04-24 11:04 | 49.88555 | 73.08797 | 27099 ft | 422 kts | 315° |
| 2026-04-24 11:05 | 49.90677 | 73.05718 | 26625 ft | 418 kts | 315° |
| 2026-04-24 11:05 | 49.92775 | 73.02670 | 26164 ft | 414 kts | 315° |
| 2026-04-24 11:05 | 49.94874 | 72.99617 | 25711 ft | 411 kts | 315° |
| 2026-04-24 11:05 | 49.96947 | 72.96598 | 25256 ft | 410 kts | 315° |
| 2026-04-24 11:06 | 49.99013 | 72.93584 | 24800 ft | 408 kts | 315° |
| 2026-04-24 11:06 | 50.01061 | 72.90594 | 24362 ft | 406 kts | 315° |
| 2026-04-24 11:06 | 50.03104 | 72.87608 | 23930 ft | 404 kts | 315° |
| 2026-04-24 11:06 | 50.05152 | 72.84609 | 23488 ft | 401 kts | 315° |
| 2026-04-24 11:07 | 50.09166 | 72.78722 | 22666 ft | 398 kts | 315° |
| 2026-04-24 11:07 | 50.11176 | 72.75770 | 22265 ft | 396 kts | 315° |
| 2026-04-24 11:07 | 50.13158 | 72.72854 | 21873 ft | 395 kts | 315° |
| 2026-04-24 11:08 | 50.15165 | 72.69899 | 21474 ft | 392 kts | 315° |
| 2026-04-24 11:08 | 50.17132 | 72.66999 | 21086 ft | 390 kts | 315° |
| 2026-04-24 11:08 | 50.19190 | 72.64372 | 20698 ft | 389 kts | 327° |
| 2026-04-24 11:08 | 50.21603 | 72.62387 | 20305 ft | 388 kts | 332° |
| 2026-04-24 11:09 | 50.23991 | 72.60477 | 19879 ft | 388 kts | 332° |
| 2026-04-24 11:09 | 50.26380 | 72.58587 | 19457 ft | 386 kts | 332° |
| 2026-04-24 11:09 | 50.28749 | 72.56708 | 19042 ft | 383 kts | 331° |
| 2026-04-24 11:09 | 50.31098 | 72.54847 | 18637 ft | 379 kts | 331° |
| 2026-04-24 11:10 | 50.33456 | 72.52979 | 18244 ft | 377 kts | 331° |
| 2026-04-24 11:10 | 50.35780 | 72.51136 | 17867 ft | 376 kts | 331° |
| 2026-04-24 11:10 | 50.38088 | 72.49304 | 17492 ft | 376 kts | 330° |
| 2026-04-24 11:10 | 50.40415 | 72.47456 | 17111 ft | 375 kts | 330° |
| 2026-04-24 11:11 | 50.42737 | 72.45608 | 16726 ft | 372 kts | 330° |
| 2026-04-24 11:11 | 50.45011 | 72.43797 | 16350 ft | 370 kts | 330° |
| 2026-04-24 11:11 | 50.47306 | 72.41968 | 15981 ft | 367 kts | 330° |
| 2026-04-24 11:11 | 50.49577 | 72.40157 | 15614 ft | 366 kts | 330° |
| 2026-04-24 11:12 | 50.51817 | 72.38367 | 15246 ft | 364 kts | 330° |
| 2026-04-24 11:12 | 50.54075 | 72.36561 | 14876 ft | 363 kts | 330° |
| 2026-04-24 11:12 | 50.56319 | 72.34764 | 14507 ft | 361 kts | 329° |
| 2026-04-24 11:12 | 50.58550 | 72.32976 | 14144 ft | 359 kts | 329° |
| 2026-04-24 11:13 | 50.60760 | 72.31203 | 13789 ft | 356 kts | 329° |
| 2026-04-24 11:13 | 50.62934 | 72.29457 | 13448 ft | 355 kts | 329° |
| 2026-04-24 11:13 | 50.65143 | 72.27682 | 13096 ft | 354 kts | 329° |
| 2026-04-24 11:13 | 50.67304 | 72.25942 | 12736 ft | 353 kts | 329° |
| 2026-04-24 11:14 | 50.69476 | 72.24194 | 12330 ft | 350 kts | 329° |
| 2026-04-24 11:14 | 50.71625 | 72.22461 | 12063 ft | 345 kts | 329° |
| 2026-04-24 11:14 | 50.73738 | 72.20756 | 11882 ft | 338 kts | 329° |
| 2026-04-24 11:14 | 50.75826 | 72.19068 | 11532 ft | 337 kts | 328° |
| 2026-04-24 11:15 | 50.77888 | 72.17400 | 11175 ft | 332 kts | 328° |
| 2026-04-24 11:15 | 50.79933 | 72.15743 | 10852 ft | 330 kts | 328° |
| 2026-04-24 11:15 | 50.81971 | 72.14091 | 10544 ft | 330 kts | 328° |
| 2026-04-24 11:15 | 50.84016 | 72.12432 | 10313 ft | 324 kts | 328° |
| 2026-04-24 11:16 | 50.85967 | 72.10852 | 10302 ft | 309 kts | 328° |
| 2026-04-24 11:16 | 50.87822 | 72.09345 | 10276 ft | 296 kts | 328° |
| 2026-04-24 11:16 | 50.89635 | 72.07870 | 10128 ft | 288 kts | 328° |
| 2026-04-24 11:16 | 50.91396 | 72.06435 | 9976 ft | 282 kts | 328° |
| 2026-04-24 11:17 | 50.93114 | 72.05032 | 9785 ft | 282 kts | 328° |
| 2026-04-24 11:17 | 50.94873 | 72.03596 | 9595 ft | 282 kts | 328° |
| 2026-04-24 11:17 | 50.96620 | 72.02168 | 9362 ft | 284 kts | 328° |
| 2026-04-24 11:17 | 50.98357 | 72.00749 | 9071 ft | 282 kts | 328° |
| 2026-04-24 11:18 | 51.00087 | 71.99335 | 8804 ft | 280 kts | 328° |
| 2026-04-24 11:18 | 51.01825 | 71.97914 | 8507 ft | 278 kts | 328° |
| 2026-04-24 11:18 | 51.03537 | 71.96512 | 8186 ft | 278 kts | 328° |
| 2026-04-24 11:18 | 51.05225 | 71.95129 | 8030 ft | 271 kts | 328° |
| 2026-04-24 11:19 | 51.06905 | 71.93751 | 7766 ft | 277 kts | 328° |
| 2026-04-24 11:19 | 51.08626 | 71.92335 | 7403 ft | 278 kts | 329° |
| 2026-04-24 11:19 | 51.10339 | 71.90928 | 7053 ft | 278 kts | 329° |
| 2026-04-24 11:19 | 51.12057 | 71.89515 | 6685 ft | 278 kts | 329° |
| 2026-04-24 11:20 | 51.13737 | 71.88094 | 6364 ft | 271 kts | 323° |
| 2026-04-24 11:20 | 51.15118 | 71.86200 | 6048 ft | 257 kts | 311° |
| 2026-04-24 11:20 | 51.16372 | 71.84227 | 5740 ft | 250 kts | 312° |
| 2026-04-24 11:20 | 51.17578 | 71.82334 | 5518 ft | 237 kts | 311° |
| 2026-04-24 11:21 | 51.18726 | 71.80514 | 5310 ft | 229 kts | 311° |
| 2026-04-24 11:21 | 51.19702 | 71.78627 | 5156 ft | 215 kts | 290° |
| 2026-04-24 11:21 | 51.19896 | 71.76427 | 5033 ft | 197 kts | 254° |
| 2026-04-24 11:21 | 51.19304 | 71.74554 | 4939 ft | 189 kts | 233° |
| 2026-04-24 11:22 | 51.18530 | 71.72852 | 4823 ft | 192 kts | 234° |
| 2026-04-24 11:22 | 51.17743 | 71.71107 | 4702 ft | 193 kts | 234° |
| 2026-04-24 11:22 | 51.16868 | 71.69460 | 4572 ft | 192 kts | 224° |
| 2026-04-24 11:22 | 51.15857 | 71.67927 | 4438 ft | 190 kts | 224° |
| 2026-04-24 11:23 | 51.14862 | 71.66394 | 4223 ft | 193 kts | 225° |
| 2026-04-24 11:23 | 51.13915 | 71.64884 | 4005 ft | 186 kts | 225° |
| 2026-04-24 11:23 | 51.13032 | 71.63488 | 3747 ft | 174 kts | 225° |
| 2026-04-24 11:23 | 51.12220 | 71.62207 | 3532 ft | 158 kts | 225° |
| 2026-04-24 11:24 | 51.11443 | 71.60985 | 3326 ft | 158 kts | 225° |
| 2026-04-24 11:24 | 51.10656 | 71.59750 | 3147 ft | 161 kts | 224° |
| 2026-04-24 11:24 | 51.09868 | 71.58514 | 2947 ft | 158 kts | 225° |
| 2026-04-24 11:24 | 51.09091 | 71.57299 | 2728 ft | 157 kts | 225° |
| 2026-04-24 11:25 | 51.08311 | 71.56076 | 2521 ft | 156 kts | 225° |
| 2026-04-24 11:25 | 51.07538 | 71.54871 | 2318 ft | 157 kts | 226° |
| 2026-04-24 11:25 | 51.06764 | 71.53656 | 2160 ft | 149 kts | 225° |
| 2026-04-24 11:25 | 51.06043 | 71.52528 | 1942 ft | 146 kts | 225° |
| 2026-04-24 11:26 | 51.05315 | 71.51395 | 1734 ft | 147 kts | 227° |
| 2026-04-24 11:26 | 51.04582 | 71.50246 | 1546 ft | 149 kts | 227° |
| 2026-04-24 11:26 | 51.03852 | 71.49117 | 1337 ft | 146 kts | 226° |
| 2026-04-24 11:26 | 51.03135 | 71.47993 | 1182 ft | 144 kts | 228° |
| 2026-04-24 11:27 | 51.02478 | 71.46964 | 1176 ft | 123 kts | 226° |
| 2026-04-24 11:27 | 51.01982 | 71.46190 | 1176 ft | 71 kts | 225° |
| 2026-04-24 11:27 | 51.01742 | 71.45816 | 1176 ft | 24 kts | 225° |
| 2026-04-24 11:27 | 51.01695 | 71.45673 | 1176 ft | 11 kts | 289° |
| 2026-04-24 11:28 | 51.01766 | 71.45541 | 1176 ft | 20 kts | 315° |
| 2026-04-24 11:28 | 51.01856 | 71.45532 | 1176 ft | 17 kts | 39° |
| 2026-04-24 11:28 | 51.01966 | 71.45704 | 1176 ft | 29 kts | 51° |
| 2026-04-24 11:28 | 51.02116 | 71.45939 | 1176 ft | 24 kts | 44° |
| 2026-04-24 11:29 | 51.02268 | 71.46175 | 1176 ft | 37 kts | 45° |
| 2026-04-24 11:29 | 51.02452 | 71.46461 | 1176 ft | 33 kts | 45° |
| 2026-04-24 11:29 | 51.02594 | 71.46682 | 1176 ft | 20 kts | 43° |
| 2026-04-24 11:29 | 51.02699 | 71.46600 | 1176 ft | 21 kts | 271° |
| 2026-04-24 11:30 | 51.02628 | 71.46374 | 1176 ft | 25 kts | 253° |
| 2026-04-24 11:30 | 51.02544 | 71.46179 | 1176 ft | 25 kts | 224° |
| 2026-04-24 11:30 | 51.02518 | 71.46085 | 1176 ft | 8 kts | 336° |
| 2026-04-24 11:30 | 51.02570 | 71.46085 | 1176 ft | 10 kts | 359° |
| 2026-04-24 11:31 | 51.02606 | 71.46084 | 1176 ft | 1 kts | 359° |